Terminal Aerodrome Forecast
Issued by NWS Billings, MT

Home | Current Version | Previous Version | Text Only | Print | Product List | Glossary On
Versions: 1 2 3 4 5 6 7 8 9 10 11 12 13 14 15 16 17 18 19 20 21 22 23 24 25 26 27 28 29 30 31 32 33 34 35 36
000
FTUS45 KBYZ 252105 AAB
TAFMLS
TAF AMD
KMLS 252105Z 2521/2618 16009KT P6SM -RA FEW006 SCT035 OVC045
     FM260200 15005KT P6SM BKN060
     FM261400 23006KT P6SM VCFG FEW060=

USA.gov is the U.S. government's official web portal to all federal, state and local government web resources and services.